createdAt,value
2019-05-29T00:00:20.099Z,70.22
2019-05-29T00:03:25.175Z,70.72
2019-05-29T00:06:29.897Z,71.11
2019-05-29T00:09:35.323Z,71.23
2019-05-29T00:12:40.084Z,70.94
2019-05-29T00:15:44.867Z,71.34
2019-05-29T00:18:49.867Z,71.39
2019-05-29T00:21:54.678Z,71.51
2019-05-29T00:24:59.433Z,72.28
2019-05-29T00:28:04.539Z,72.88
2019-05-29T00:31:10.009Z,73.38
2019-05-29T00:34:15.816Z,73.99
2019-05-29T00:37:21.125Z,75.23
2019-05-29T00:40:25.864Z,76.15
2019-05-29T00:43:30.927Z,77.22
2019-05-29T00:46:35.794Z,78.51
2019-05-29T00:49:40.912Z,78.95
2019-05-29T00:52:46.536Z,78.67
2019-05-29T00:55:52.635Z,78.44
2019-05-29T00:58:57.362Z,78.74
2019-05-29T01:02:02.385Z,78.43
2019-05-29T01:05:07.209Z,78.62
2019-05-29T01:08:12.556Z,78.91
2019-05-29T01:11:17.424Z,79.34
2019-05-29T01:14:22.563Z,79.92
2019-05-29T01:17:27.290Z,80.06
2019-05-29T01:20:32.115Z,80.93
2019-05-29T01:23:37.137Z,80.84
2019-05-29T01:26:42.215Z,80.92
2019-05-29T01:29:46.962Z,81.02
2019-05-29T01:32:52.152Z,81.44
2019-05-29T01:35:57.179Z,81.71
2019-05-29T01:39:02.466Z,82.05
2019-05-29T01:42:07.866Z,82.18
2019-05-29T01:45:13.049Z,81.62
2019-05-29T01:48:18.133Z,81.95
2019-05-29T01:51:23.766Z,81.60
2019-05-29T01:54:29.668Z,82.18
2019-05-29T01:57:35.047Z,81.61
2019-05-29T02:00:39.896Z,82.96
2019-05-29T02:03:44.653Z,83.07
2019-05-29T02:06:49.433Z,83.77
2019-05-29T02:09:54.854Z,83.55
2019-05-29T02:12:59.882Z,84.27
2019-05-29T02:16:05.651Z,84.01
2019-05-29T02:19:10.482Z,83.88
2019-05-29T02:22:15.333Z,84.17
2019-05-29T02:25:22.474Z,83.91
2019-05-29T02:28:28.436Z,83.92
2019-05-29T02:31:33.510Z,84.04
2019-05-29T02:34:38.560Z,84.17
2019-05-29T02:37:43.606Z,83.69
2019-05-29T02:40:48.352Z,82.38
2019-05-29T02:43:53.533Z,82.96
2019-05-29T02:46:58.681Z,82.31
2019-05-29T02:50:04.493Z,82.07
2019-05-29T02:53:09.828Z,81.54
2019-05-29T02:56:14.931Z,82.15
2019-05-29T02:59:21.025Z,83.04
2019-05-29T03:02:27.762Z,83.45
2019-05-29T03:05:32.620Z,84.41
2019-05-29T03:08:37.989Z,85.14
2019-05-29T03:11:43.594Z,86.40
2019-05-29T03:14:48.646Z,87.12
2019-05-29T03:17:53.916Z,87.37
2019-05-29T03:20:58.758Z,86.88
2019-05-29T03:24:04.318Z,86.92
2019-05-29T03:27:09.079Z,86.93
2019-05-29T03:30:15.332Z,86.79
2019-05-29T03:33:20.342Z,86.50
2019-05-29T03:36:28.383Z,87.10
2019-05-29T03:39:32.351Z,87.21
2019-05-29T03:42:39.056Z,88.10
2019-05-29T03:45:45.046Z,88.35
2019-05-29T03:48:49.800Z,88.04
2019-05-29T03:51:54.810Z,88.47
2019-05-29T03:54:59.794Z,88.27
2019-05-29T03:58:04.729Z,87.90
2019-05-29T04:01:09.467Z,87.49
2019-05-29T04:04:14.227Z,86.70
2019-05-29T04:07:19.273Z,86.71
2019-05-29T04:10:34.194Z,86.81
2019-05-29T04:13:38.759Z,87.03
2019-05-29T04:16:59.011Z,87.17
2019-05-29T04:19:52.745Z,87.57
2019-05-29T04:22:59.861Z,87.70
2019-05-29T04:26:06.086Z,87.08
2019-05-29T04:29:12.581Z,87.01
2019-05-29T04:32:17.601Z,87.42
2019-05-29T04:35:22.393Z,87.98
2019-05-29T04:38:28.632Z,88.37
2019-05-29T04:41:34.704Z,88.32
2019-05-29T04:44:41.146Z,88.51
2019-05-29T04:47:46.446Z,89.28
2019-05-29T04:50:51.273Z,88.71
2019-05-29T04:53:56.042Z,88.30
2019-05-29T04:57:00.774Z,88.69
2019-05-29T05:00:05.823Z,88.77
2019-05-29T05:03:10.586Z,88.62
2019-05-29T05:06:15.333Z,87.57
2019-05-29T05:09:20.372Z,87.70
2019-05-29T05:12:25.680Z,87.54
2019-05-29T05:15:31.732Z,87.02
2019-05-29T05:18:37.903Z,87.24
2019-05-29T05:21:42.777Z,86.55
2019-05-29T05:24:47.568Z,86.59
2019-05-29T05:27:52.329Z,86.69
2019-05-29T05:30:57.143Z,86.84
2019-05-29T05:34:02.023Z,86.78
2019-05-29T05:37:06.860Z,87.03
2019-05-29T05:40:11.868Z,86.47
2019-05-29T05:43:24.173Z,86.00
2019-05-29T05:46:24.836Z,85.77
2019-05-29T05:49:31.244Z,86.22
2019-05-29T05:52:37.407Z,85.57
2019-05-29T05:55:42.603Z,85.16
2019-05-29T05:58:47.495Z,84.40
2019-05-29T06:01:52.642Z,84.61
2019-05-29T06:04:57.643Z,84.98
2019-05-29T06:08:02.519Z,85.33
2019-05-29T06:11:07.295Z,86.35
2019-05-29T06:14:12.051Z,85.30
2019-05-29T06:17:17.083Z,84.50
2019-05-29T06:20:22.348Z,85.06
2019-05-29T06:23:27.203Z,84.30
2019-05-29T06:26:32.780Z,84.21
2019-05-29T06:29:37.608Z,83.94
2019-05-29T06:32:43.621Z,83.32
2019-05-29T06:35:48.357Z,82.52
2019-05-29T06:38:53.114Z,82.33
2019-05-29T06:41:58.224Z,81.66
2019-05-29T06:45:03.792Z,82.16
2019-05-29T06:48:09.745Z,82.42
2019-05-29T06:51:14.479Z,82.60
2019-05-29T06:54:20.754Z,81.98
2019-05-29T06:57:26.100Z,81.10
2019-05-29T07:00:35.566Z,81.18
2019-05-29T07:03:39.737Z,81.83
2019-05-29T07:06:44.907Z,81.15
2019-05-29T07:09:49.925Z,80.65
2019-05-29T07:12:54.668Z,80.20
2019-05-29T07:15:59.869Z,81.08
2019-05-29T07:22:11.279Z,80.41
2019-05-29T07:25:16.182Z,79.68
2019-05-29T07:28:20.967Z,79.92
2019-05-29T07:31:25.710Z,79.33
2019-05-29T07:34:30.758Z,78.44
2019-05-29T07:37:37.714Z,78.76
2019-05-29T07:40:45.088Z,78.07
2019-05-29T07:43:50.191Z,77.12
2019-05-29T07:46:55.306Z,76.68
2019-05-29T07:50:00.073Z,76.61
2019-05-29T07:53:09.120Z,76.25
2019-05-29T07:56:22.540Z,76.75
2019-05-29T07:59:21.991Z,75.17
2019-05-29T08:02:27.114Z,74.56
2019-05-29T08:05:31.932Z,75.28
2019-05-29T08:08:37.021Z,75.79
2019-05-29T08:11:41.818Z,75.56
2019-05-29T08:14:47.810Z,74.12
2019-05-29T08:17:52.786Z,73.38
2019-05-29T08:20:57.788Z,72.72
2019-05-29T08:24:02.533Z,72.31
2019-05-29T08:27:07.353Z,73.19
2019-05-29T08:30:12.265Z,72.04
2019-05-29T08:33:17.002Z,72.10
2019-05-29T08:36:22.202Z,70.89
2019-05-29T08:39:36.127Z,70.88
2019-05-29T08:42:34.201Z,72.17
2019-05-29T08:45:39.353Z,73.62
2019-05-29T08:48:45.771Z,74.33
2019-05-29T08:51:52.328Z,74.08
2019-05-29T08:54:57.100Z,74.94
2019-05-29T08:58:01.863Z,74.62
2019-05-29T09:01:06.696Z,76.20
2019-05-29T09:04:11.805Z,77.70
2019-05-29T09:07:16.620Z,80.84
2019-05-29T09:10:21.608Z,81.31
2019-05-29T09:13:26.333Z,80.47
2019-05-29T09:16:31.512Z,82.24
2019-05-29T09:19:39.313Z,80.99
2019-05-29T09:22:44.374Z,83.47
2019-05-29T09:25:49.470Z,80.91
2019-05-29T09:28:54.716Z,78.82
2019-05-29T09:31:59.445Z,78.37
2019-05-29T09:35:05.185Z,79.94
2019-05-29T09:38:10.141Z,80.08
2019-05-29T09:41:16.294Z,78.42
2019-05-29T09:44:34.028Z,76.31
2019-05-29T09:47:28.331Z,76.81
2019-05-29T09:50:49.505Z,76.25
2019-05-29T09:53:39.963Z,71.95
2019-05-29T09:56:44.974Z,73.81
2019-05-29T09:59:49.836Z,70.76
2019-05-29T10:02:55.608Z,68.53
2019-05-29T10:06:01.527Z,69.05
2019-05-29T10:09:08.017Z,68.78
2019-05-29T10:12:12.876Z,68.23
2019-05-29T10:15:20.442Z,67.08
2019-05-29T10:18:32.076Z,66.15
2019-05-29T10:21:40.245Z,63.33
2019-05-29T10:24:39.045Z,62.16
2019-05-29T10:27:44.125Z,60.56
2019-05-29T10:30:50.224Z,57.96
2019-05-29T10:33:55.277Z,57.96
2019-05-29T10:37:00.047Z,56.90
2019-05-29T10:40:05.599Z,56.12
2019-05-29T10:43:10.488Z,56.23
2019-05-29T10:46:15.748Z,56.23
2019-05-29T10:49:20.701Z,55.64
2019-05-29T10:52:25.534Z,57.30
2019-05-29T10:55:31.344Z,55.70
2019-05-29T10:58:48.619Z,55.08
2019-05-29T11:01:42.543Z,54.89
2019-05-29T11:04:51.584Z,54.01
2019-05-29T11:07:54.099Z,53.79
2019-05-29T11:10:59.899Z,52.39
2019-05-29T11:14:04.734Z,51.58
2019-05-29T11:17:10.082Z,52.26
2019-05-29T11:20:15.742Z,51.34
2019-05-29T11:23:20.466Z,50.69
2019-05-29T11:26:25.670Z,51.60
2019-05-29T11:29:30.745Z,52.69
2019-05-29T11:32:35.866Z,52.09
2019-05-29T11:35:57.183Z,51.21
2019-05-29T11:38:47.183Z,51.06
2019-05-29T11:41:52.710Z,50.43
2019-05-29T11:44:59.420Z,51.61
2019-05-29T11:48:05.313Z,52.69
2019-05-29T11:51:10.281Z,51.95
2019-05-29T11:54:15.040Z,51.93
2019-05-29T11:57:19.817Z,52.15
2019-05-29T12:00:25.192Z,51.80
2019-05-29T12:03:29.926Z,53.77
2019-05-29T12:06:35.185Z,59.46
2019-05-29T12:09:40.464Z,61.58
2019-05-29T12:12:45.493Z,63.27
2019-05-29T12:15:51.502Z,63.92
2019-05-29T12:18:57.731Z,61.88
2019-05-29T12:22:03.086Z,60.07
2019-05-29T12:25:08.673Z,59.02
2019-05-29T12:28:13.691Z,59.20
2019-05-29T12:31:19.210Z,60.40
2019-05-29T12:34:24.388Z,61.17
2019-05-29T12:37:29.243Z,61.17
2019-05-29T12:40:34.066Z,61.94
2019-05-29T12:43:40.087Z,62.81
2019-05-29T12:46:44.889Z,63.02
2019-05-29T12:49:49.730Z,62.14
2019-05-29T12:52:55.722Z,63.54
2019-05-29T12:56:02.598Z,62.35
2019-05-29T12:59:07.594Z,63.30
2019-05-29T13:02:12.852Z,61.99
2019-05-29T13:05:20.687Z,61.69
2019-05-29T13:08:25.173Z,60.71
2019-05-29T13:11:30.551Z,60.71
2019-05-29T13:14:35.745Z,61.16
2019-05-29T13:17:40.779Z,60.87
2019-05-29T13:20:45.582Z,61.19
2019-05-29T13:23:50.383Z,61.51
2019-05-29T13:26:55.564Z,62.32
2019-05-29T13:30:03.540Z,61.08
2019-05-29T13:33:08.836Z,62.19
2019-05-29T13:36:13.622Z,61.95
2019-05-29T13:39:18.480Z,61.18
2019-05-29T13:42:23.385Z,60.74
2019-05-29T13:45:28.207Z,60.77
2019-05-29T13:48:33.243Z,59.68
2019-05-29T13:51:38.332Z,60.05
2019-05-29T13:54:44.069Z,59.80
2019-05-29T13:57:48.828Z,59.28
2019-05-29T14:00:53.956Z,59.85
2019-05-29T14:04:00.070Z,58.80
2019-05-29T14:07:06.606Z,58.77
2019-05-29T14:10:11.935Z,56.75
2019-05-29T14:13:16.797Z,56.45
2019-05-29T14:16:21.792Z,58.11
2019-05-29T14:19:26.623Z,56.26
2019-05-29T14:22:32.167Z,54.90
2019-05-29T14:25:36.947Z,56.62
2019-05-29T14:28:41.718Z,54.77
2019-05-29T14:31:46.784Z,52.09
2019-05-29T14:34:51.923Z,51.15
2019-05-29T14:37:56.738Z,48.92
2019-05-29T14:41:01.756Z,49.67
2019-05-29T14:44:07.815Z,48.24
2019-05-29T14:47:13.436Z,47.54
2019-05-29T14:50:18.688Z,48.52
2019-05-29T14:53:23.565Z,46.77
2019-05-29T14:56:28.473Z,46.60
2019-05-29T14:59:34.406Z,45.22
2019-05-29T15:02:39.471Z,45.24
2019-05-29T15:05:44.276Z,45.19
2019-05-29T15:08:49.284Z,42.63
2019-05-29T15:11:54.427Z,41.08
2019-05-29T15:14:59.884Z,43.00
2019-05-29T15:18:04.979Z,43.52
2019-05-29T15:21:11.158Z,42.21
2019-05-29T15:24:16.283Z,41.92
2019-05-29T15:27:21.037Z,43.26
2019-05-29T15:30:26.088Z,44.31
2019-05-29T15:33:30.835Z,45.54
2019-05-29T15:36:35.558Z,46.04
2019-05-29T15:39:40.666Z,45.44
2019-05-29T15:42:45.397Z,44.72
2019-05-29T15:45:50.172Z,46.47
2019-05-29T15:48:54.916Z,46.94
2019-05-29T15:51:59.683Z,48.43
2019-05-29T15:55:21.295Z,49.43
2019-05-29T15:58:11.433Z,49.62
2019-05-29T16:01:17.844Z,50.20
2019-05-29T16:04:23.739Z,49.46
2019-05-29T16:07:28.514Z,49.14
2019-05-29T16:10:33.331Z,49.53
2019-05-29T16:13:38.402Z,49.38
2019-05-29T16:16:43.213Z,49.11
2019-05-29T16:19:47.958Z,48.39
2019-05-29T16:22:52.791Z,46.25
2019-05-29T16:25:57.561Z,43.79
2019-05-29T16:29:02.925Z,46.98
2019-05-29T16:32:07.789Z,47.38
2019-05-29T16:35:13.530Z,47.56
2019-05-29T16:38:19.411Z,46.30
2019-05-29T16:41:24.728Z,45.28
2019-05-29T16:44:29.978Z,44.45
2019-05-29T16:47:35.048Z,43.65
2019-05-29T16:50:40.361Z,43.80
2019-05-29T16:53:48.739Z,43.91
2019-05-29T16:56:53.625Z,42.16
2019-05-29T16:59:58.428Z,41.67
2019-05-29T17:03:03.309Z,40.33
2019-05-29T17:06:08.101Z,40.21
2019-05-29T17:09:14.516Z,40.34
2019-05-29T17:12:20.426Z,41.50
2019-05-29T17:15:25.363Z,40.47
2019-05-29T17:18:30.222Z,41.30
2019-05-29T17:21:35.451Z,41.58
2019-05-29T17:24:40.299Z,42.33
2019-05-29T17:27:45.245Z,42.46
2019-05-29T17:30:50.075Z,43.33
2019-05-29T17:33:55.126Z,43.37
2019-05-29T17:36:59.999Z,42.29
2019-05-29T17:40:05.866Z,41.21
2019-05-29T17:43:10.689Z,40.99
2019-05-29T17:46:15.523Z,41.54
2019-05-29T17:49:24.941Z,42.66
2019-05-29T17:52:26.852Z,43.77
2019-05-29T17:55:31.920Z,44.75
2019-05-29T17:58:36.702Z,44.22
2019-05-29T18:01:41.530Z,44.17
2019-05-29T18:04:46.673Z,44.81
2019-05-29T18:07:51.589Z,45.74
2019-05-29T18:10:56.466Z,45.86
2019-05-29T18:14:05.015Z,45.40
2019-05-29T18:17:08.320Z,45.51
2019-05-29T18:20:14.805Z,44.90
2019-05-29T18:23:21.612Z,44.69
2019-05-29T18:26:42.606Z,45.39
2019-05-29T18:29:33.517Z,44.91
2019-05-29T18:32:38.707Z,44.53
2019-05-29T18:35:43.847Z,44.69
2019-05-29T18:38:48.618Z,44.74
2019-05-29T18:41:53.749Z,44.74
2019-05-29T18:44:59.859Z,45.40
2019-05-29T18:48:04.823Z,45.72
2019-05-29T18:51:09.693Z,46.44
2019-05-29T18:54:15.297Z,47.50
2019-05-29T18:57:20.824Z,47.91
2019-05-29T19:00:25.791Z,48.32
2019-05-29T19:03:32.611Z,49.29
2019-05-29T19:06:37.388Z,49.38
2019-05-29T19:09:42.449Z,50.07
2019-05-29T19:12:47.504Z,50.21
2019-05-29T19:15:52.352Z,50.39
2019-05-29T19:18:57.477Z,51.21
2019-05-29T19:22:02.233Z,51.50
2019-05-29T19:25:07.302Z,51.91
2019-05-29T19:28:12.316Z,53.25
2019-05-29T19:31:17.228Z,54.08
2019-05-29T19:34:23.154Z,54.34
2019-05-29T19:37:28.064Z,55.41
2019-05-29T19:40:34.546Z,55.93
2019-05-29T19:43:39.406Z,57.83
2019-05-29T19:46:53.542Z,58.98
2019-05-29T19:49:50.593Z,58.93
2019-05-29T19:52:55.457Z,60.12
2019-05-29T19:56:00.262Z,60.21
2019-05-29T19:59:05.167Z,60.32
2019-05-29T20:02:10.392Z,61.24
2019-05-29T20:05:15.808Z,61.19
2019-05-29T20:08:20.535Z,60.71
2019-05-29T20:11:25.261Z,60.91
2019-05-29T20:14:31.745Z,60.81
2019-05-29T20:17:36.763Z,61.62
2019-05-29T20:20:42.470Z,62.00
2019-05-29T20:23:47.277Z,62.11
2019-05-29T20:26:52.010Z,61.46
2019-05-29T20:29:56.765Z,60.14
2019-05-29T20:33:01.524Z,60.64
2019-05-29T20:36:06.333Z,60.17
2019-05-29T20:39:11.081Z,59.90
2019-05-29T20:42:15.798Z,59.99
2019-05-29T20:45:20.695Z,59.67
2019-05-29T20:48:25.738Z,59.48
2019-05-29T20:51:30.563Z,60.22
2019-05-29T20:54:35.617Z,60.61
2019-05-29T20:57:40.371Z,60.56
2019-05-29T21:00:45.203Z,60.72
2019-05-29T21:03:50.018Z,61.21
2019-05-29T21:06:54.779Z,62.00
2019-05-29T21:09:59.748Z,62.28
2019-05-29T21:13:04.643Z,61.79
2019-05-29T21:16:09.358Z,62.82
2019-05-29T21:19:14.347Z,62.82
2019-05-29T21:22:19.097Z,63.22
2019-05-29T21:25:24.496Z,63.64
2019-05-29T21:28:40.011Z,63.32
2019-05-29T21:31:35.769Z,63.56
2019-05-29T21:34:41.851Z,63.73
2019-05-29T21:37:46.779Z,63.72
2019-05-29T21:40:53.094Z,63.81
2019-05-29T21:43:58.182Z,63.96
2019-05-29T21:47:03.044Z,64.81
2019-05-29T21:50:09.414Z,64.81
2019-05-29T21:53:14.275Z,66.05
2019-05-29T21:56:19.095Z,66.05
2019-05-29T21:59:23.826Z,65.67
2019-05-29T22:02:28.786Z,66.22
2019-05-29T22:05:33.802Z,66.54
2019-05-29T22:08:38.837Z,67.25
2019-05-29T22:11:44.161Z,67.25
2019-05-29T22:14:50.718Z,67.46
2019-05-29T22:17:57.069Z,67.89
2019-05-29T22:21:02.193Z,67.89
2019-05-29T22:24:07.722Z,67.60
2019-05-29T22:27:12.830Z,67.99
2019-05-29T22:30:18.336Z,67.99
2019-05-29T22:33:23.560Z,68.60
2019-05-29T22:36:28.761Z,68.85
2019-05-29T22:39:33.616Z,68.66
2019-05-29T22:42:38.712Z,68.95
2019-05-29T22:45:43.599Z,68.81
2019-05-29T22:48:48.356Z,68.73
2019-05-29T22:51:53.667Z,70.52
2019-05-29T22:54:59.925Z,70.93
2019-05-29T22:58:05.036Z,71.22
2019-05-29T23:01:09.872Z,70.98
2019-05-29T23:04:14.922Z,72.42
2019-05-29T23:07:19.650Z,71.72
2019-05-29T23:10:24.508Z,72.27
2019-05-29T23:13:29.314Z,74.06
2019-05-29T23:16:34.072Z,74.05
2019-05-29T23:19:39.138Z,74.15
2019-05-29T23:22:43.916Z,74.40
2019-05-29T23:25:50.026Z,74.55
2019-05-29T23:28:55.093Z,75.25
2019-05-29T23:32:00.998Z,75.57
2019-05-29T23:35:06.227Z,75.62
2019-05-29T23:38:10.953Z,75.84
2019-05-29T23:41:16.093Z,75.40
2019-05-29T23:44:21.232Z,75.27
2019-05-29T23:47:25.994Z,76.42
2019-05-29T23:50:30.878Z,75.32
2019-05-29T23:53:35.635Z,76.23
2019-05-29T23:56:40.506Z,76.58
2019-05-29T23:59:45.550Z,76.62
